Time;durP1;ratioP1;P1;durP2;ratioP2;P2;SDS_P1;SDS_P2;PMS_P1;PMS_P2;Temp;Humidity;BMP_temperature;BMP_pressure;BME280_temperature;BME280_humidity;BME280_pressure;Samples;Min_cycle;Max_cycle;Signal;HPM_P1;HPM_P2
2022/09/02 00:01:10;;;;;;;1.20;0.80;;;14.40;99.90;;;;;;5014666;28;20081;-90
2022/09/02 00:03:36;;;;;;;2.33;0.70;;;14.30;99.90;;;;;;4997177;28;20049;-87
2022/09/02 00:06:02;;;;;;;2.47;0.55;;;14.30;99.90;;;;;;4996881;28;20398;-88
2022/09/02 00:08:30;;;;;;;2.40;0.77;;;14.30;99.90;;;;;;4997083;28;20058;-88
2022/09/02 00:10:59;;;;;;;4.07;0.73;;;14.20;99.90;;;;;;4981127;28;20132;-88
2022/09/02 00:13:27;;;;;;;1.10;0.70;;;14.30;99.90;;;;;;5014507;28;20411;-87
2022/09/02 00:15:52;;;;;;;1.23;0.52;;;14.20;99.90;;;;;;5014486;28;20084;-89
2022/09/02 00:18:18;;;;;;;2.20;0.70;;;14.20;99.90;;;;;;5014415;28;20132;-90
2022/09/02 00:20:46;;;;;;;1.63;0.75;;;14.20;99.90;;;;;;5014096;28;20042;-88
2022/09/02 00:23:15;;;;;;;4.68;0.85;;;14.10;99.90;;;;;;5014349;28;20041;-87
2022/09/02 00:25:43;;;;;;;1.92;0.60;;;14.10;99.90;;;;;;4996409;28;20042;-88
2022/09/02 00:28:10;;;;;;;1.92;0.52;;;14.10;99.90;;;;;;4996895;28;20050;-90
2022/09/02 00:30:36;;;;;;;1.63;0.60;;;14.00;99.90;;;;;;5014146;28;20147;-88
2022/09/02 00:33:03;;;;;;;1.75;0.65;;;14.00;99.90;;;;;;5014113;28;20618;-89
2022/09/02 00:35:30;;;;;;;1.83;0.80;;;14.00;99.90;;;;;;4996576;28;20050;-88
2022/09/02 00:37:56;;;;;;;1.98;0.70;;;14.00;99.90;;;;;;4996562;28;20081;-89
2022/09/02 00:40:22;;;;;;;4.63;0.90;;;13.90;99.90;;;;;;4996523;28;20092;-91
2022/09/02 00:42:48;;;;;;;5.15;0.68;;;13.90;99.90;;;;;;4996722;28;20483;-89
2022/09/02 00:45:17;;;;;;;2.08;0.70;;;13.90;99.90;;;;;;4996582;28;20458;-88
2022/09/02 00:47:44;;;;;;;2.42;0.77;;;13.90;99.90;;;;;;4996280;28;20108;-89
2022/09/02 00:50:14;;;;;;;1.10;0.70;;;13.90;99.90;;;;;;4980448;28;20050;-87
2022/09/02 00:52:45;;;;;;;1.53;0.70;;;13.80;99.90;;;;;;4980748;28;20056;-88
2022/09/02 00:55:15;;;;;;;1.35;0.68;;;13.80;99.90;;;;;;5013430;28;20045;-88
2022/09/02 00:57:53;;;;;;;1.10;0.70;;;13.80;99.90;;;;;;4980350;28;20068;-88
2022/09/02 01:00:25;;;;;;;1.85;0.70;;;13.80;99.90;;;;;;4996032;28;20783;-88
2022/09/02 01:03:00;;;;;;;2.35;0.70;;;13.80;99.90;;;;;;5013789;28;20050;-93
2022/09/02 01:05:29;;;;;;;4.30;0.80;;;13.70;99.90;;;;;;4996299;28;20056;-88
2022/09/02 01:07:56;;;;;;;2.22;0.70;;;13.70;99.90;;;;;;4996173;28;20058;-89
2022/09/02 01:10:33;;;;;;;1.42;0.70;;;13.60;99.90;;;;;;5013779;28;20054;-88
2022/09/02 01:13:08;;;;;;;4.63;0.82;;;13.60;99.90;;;;;;4980027;28;20050;-88
2022/09/02 01:15:37;;;;;;;1.27;0.70;;;13.60;99.90;;;;;;5014886;28;20128;-88
2022/09/02 01:18:05;;;;;;;1.90;0.80;;;13.60;99.90;;;;;;5017782;28;20056;-88
2022/09/02 01:20:32;;;;;;;2.80;0.98;;;13.50;99.90;;;;;;5017880;28;20403;-88
2022/09/02 01:22:58;;;;;;;3.92;0.90;;;13.50;99.90;;;;;;5000258;28;20398;-88
2022/09/02 01:25:27;;;;;;;2.78;0.80;;;13.50;99.90;;;;;;5017032;28;20380;-89
2022/09/02 01:28:01;;;;;;;1.83;0.50;;;13.40;99.90;;;;;;4984225;28;20053;-89
2022/09/02 01:30:28;;;;;;;1.35;0.60;;;13.50;99.90;;;;;;4983893;28;20089;-89
2022/09/02 01:32:54;;;;;;;2.22;0.80;;;13.40;99.90;;;;;;4983786;28;20050;-88
2022/09/02 01:35:21;;;;;;;3.13;0.75;;;13.40;99.90;;;;;;5000073;28;20095;-89
2022/09/02 01:37:47;;;;;;;4.35;1.00;;;13.40;99.90;;;;;;4999695;28;20133;-87
2022/09/02 01:40:16;;;;;;;2.17;0.82;;;13.40;99.90;;;;;;4983525;28;20042;-88
2022/09/02 01:42:47;;;;;;;5.05;0.90;;;13.30;99.90;;;;;;5000276;28;20501;-88
2022/09/02 01:45:14;;;;;;;1.88;0.80;;;13.40;99.90;;;;;;5000062;28;20045;-87
2022/09/02 01:47:40;;;;;;;1.17;0.60;;;13.30;99.90;;;;;;5017293;28;20133;-88
2022/09/02 01:50:07;;;;;;;1.15;0.77;;;13.30;99.90;;;;;;4983624;28;20085;-87
2022/09/02 01:52:33;;;;;;;1.23;0.70;;;13.30;99.90;;;;;;5016812;28;20045;-87
2022/09/02 01:54:59;;;;;;;3.15;0.80;;;13.30;99.90;;;;;;4999726;28;20057;-86
2022/09/02 01:57:25;;;;;;;1.80;0.80;;;13.30;99.90;;;;;;4999912;28;20046;-87
2022/09/02 01:59:51;;;;;;;1.73;0.93;;;13.30;99.90;;;;;;4999534;28;20084;-87
2022/09/02 02:02:18;;;;;;;1.52;0.50;;;13.20;99.90;;;;;;4967825;28;20041;-87
2022/09/02 02:04:45;;;;;;;2.50;0.85;;;13.20;99.90;;;;;;5016732;28;20045;-86
2022/09/02 02:07:14;;;;;;;2.97;1.02;;;13.20;99.90;;;;;;5016824;28;20443;-87
2022/09/02 02:09:40;;;;;;;2.05;0.77;;;13.20;99.90;;;;;;4983063;28;20108;-88
2022/09/02 02:12:07;;;;;;;3.67;0.75;;;13.20;99.90;;;;;;5016730;28;20037;-87
2022/09/02 02:14:33;;;;;;;1.63;0.80;;;13.20;99.90;;;;;;4983636;28;20116;-88
2022/09/02 02:16:59;;;;;;;3.25;0.85;;;13.20;99.90;;;;;;5016695;28;20077;-88
2022/09/02 02:19:25;;;;;;;1.42;0.55;;;13.20;99.90;;;;;;4982804;28;20077;-87
2022/09/02 02:21:50;;;;;;;2.55;0.75;;;13.20;99.90;;;;;;4998728;28;20046;-88
2022/09/02 02:24:16;;;;;;;2.08;0.77;;;13.20;99.90;;;;;;4982673;28;20480;-87
2022/09/02 02:26:42;;;;;;;3.10;0.80;;;13.20;99.90;;;;;;5016128;28;20127;-88
2022/09/02 02:29:07;;;;;;;2.33;0.75;;;13.20;99.90;;;;;;4998771;28;20050;-87
2022/09/02 02:31:34;;;;;;;1.52;0.70;;;13.10;99.90;;;;;;4966782;28;20057;-87
2022/09/02 02:34:00;;;;;;;1.92;0.65;;;13.10;99.90;;;;;;4998648;28;20072;-88
2022/09/02 02:36:26;;;;;;;2.08;1.00;;;13.10;99.90;;;;;;4966591;28;20045;-86
2022/09/02 02:38:52;;;;;;;5.50;0.90;;;13.00;99.90;;;;;;5016368;28;20061;-87
2022/09/02 02:41:18;;;;;;;4.32;0.90;;;13.10;99.90;;;;;;4982573;28;20056;-88
2022/09/02 02:43:44;;;;;;;3.05;1.05;;;13.10;99.90;;;;;;4966975;28;20395;-87
2022/09/02 02:46:10;;;;;;;2.30;0.70;;;13.10;99.90;;;;;;4982777;28;20045;-87
2022/09/02 02:48:37;;;;;;;3.40;1.00;;;13.10;99.90;;;;;;5015951;28;20045;-88
2022/09/02 02:51:03;;;;;;;6.32;1.00;;;13.00;99.90;;;;;;4998481;28;20473;-92
2022/09/02 02:53:30;;;;;;;1.30;0.68;;;13.10;99.90;;;;;;4998721;28;20057;-86
2022/09/02 02:55:56;;;;;;;3.90;0.90;;;13.10;99.90;;;;;;4998296;28;20046;-86
2022/09/02 02:58:22;;;;;;;1.05;0.60;;;13.10;99.90;;;;;;4982326;28;20419;-88
2022/09/02 03:00:48;;;;;;;1.88;0.80;;;13.00;99.90;;;;;;4998410;28;20069;-88
2022/09/02 03:03:18;;;;;;;2.95;1.00;;;13.00;99.90;;;;;;5015720;28;20430;-87
2022/09/02 03:05:45;;;;;;;3.58;1.00;;;13.00;99.90;;;;;;4982028;28;20511;-87
2022/09/02 03:08:12;;;;;;;2.88;1.10;;;13.00;99.90;;;;;;4998061;28;20130;-87
2022/09/02 03:10:40;;;;;;;1.95;0.73;;;13.00;99.90;;;;;;5015574;28;20050;-86
2022/09/02 03:13:08;;;;;;;4.13;0.75;;;13.00;99.90;;;;;;4998376;28;20050;-87
2022/09/02 03:15:35;;;;;;;1.55;0.80;;;13.00;99.90;;;;;;4966434;28;20057;-90
2022/09/02 03:18:02;;;;;;;1.55;0.90;;;13.00;99.90;;;;;;4997961;28;20046;-89
2022/09/02 03:20:27;;;;;;;2.95;0.93;;;13.00;99.90;;;;;;4998964;28;20111;-89
2022/09/02 03:22:55;;;;;;;2.03;0.93;;;13.10;99.90;;;;;;4998129;28;20085;-86
2022/09/02 03:25:23;;;;;;;3.40;0.90;;;12.90;99.90;;;;;;5014992;28;20038;-87
2022/09/02 03:27:49;;;;;;;3.05;0.93;;;12.90;99.90;;;;;;5015230;28;20480;-87
2022/09/02 03:30:19;;;;;;;3.20;0.85;;;12.80;99.90;;;;;;4997568;28;20064;-87
2022/09/02 03:32:46;;;;;;;3.97;1.00;;;12.80;99.90;;;;;;4997767;28;20128;-87
2022/09/02 03:35:17;;;;;;;1.15;0.95;;;12.80;99.90;;;;;;4981724;28;20045;-86
2022/09/02 03:37:44;;;;;;;4.38;1.00;;;12.80;99.90;;;;;;4997982;28;20046;-93
2022/09/02 03:40:14;;;;;;;2.05;0.70;;;12.70;99.90;;;;;;5014967;28;20511;-89
2022/09/02 03:42:40;;;;;;;6.82;1.23;;;12.70;99.90;;;;;;5015149;28;20381;-88
2022/09/02 03:45:08;;;;;;;2.08;1.05;;;12.80;99.90;;;;;;4981332;28;20057;-86
2022/09/02 03:47:35;;;;;;;2.30;1.13;;;12.70;99.90;;;;;;4997532;28;20393;-86
2022/09/02 03:50:02;;;;;;;4.50;0.95;;;12.70;99.90;;;;;;4997553;28;20045;-87
2022/09/02 03:52:28;;;;;;;1.75;1.10;;;12.70;99.90;;;;;;4981951;28;20496;-88
2022/09/02 03:54:54;;;;;;;2.05;1.08;;;12.60;99.90;;;;;;4980763;28;20054;-89
2022/09/02 03:57:21;;;;;;;4.32;1.20;;;12.60;99.90;;;;;;4997513;28;20058;-88
2022/09/02 03:59:47;;;;;;;6.55;1.30;;;12.60;99.90;;;;;;4997383;28;20057;-87
2022/09/02 04:02:13;;;;;;;1.73;1.05;;;12.60;99.90;;;;;;5014736;28;20368;-87
2022/09/02 04:04:39;;;;;;;1.55;1.00;;;12.60;99.90;;;;;;4997599;28;20041;-88
2022/09/02 04:07:05;;;;;;;4.28;1.20;;;12.60;99.90;;;;;;5014717;28;20396;-88
2022/09/02 04:09:30;;;;;;;2.15;1.30;;;12.60;99.90;;;;;;4980731;28;20057;-87
2022/09/02 04:11:56;;;;;;;2.40;1.30;;;12.50;99.90;;;;;;4981020;28;20050;-86
2022/09/02 04:14:22;;;;;;;2.00;1.30;;;12.50;99.90;;;;;;4964744;28;20053;-87
2022/09/02 04:16:48;;;;;;;2.38;0.85;;;12.50;99.90;;;;;;4997388;28;20042;-87
2022/09/02 04:19:13;;;;;;;1.65;1.20;;;12.50;99.90;;;;;;5014508;28;20054;-86
2022/09/02 04:21:40;;;;;;;2.05;1.20;;;12.50;99.90;;;;;;4980793;28;20495;-87
2022/09/02 04:24:08;;;;;;;6.97;1.20;;;12.50;99.90;;;;;;4996511;28;20403;-87
2022/09/02 04:26:35;;;;;;;2.10;1.15;;;12.40;99.90;;;;;;5005912;28;20038;-87
2022/09/02 04:29:01;;;;;;;1.67;1.30;;;12.40;99.90;;;;;;4996637;28;20072;-88
2022/09/02 04:31:30;;;;;;;4.60;1.48;;;12.40;99.90;;;;;;4981534;28;20558;-88
2022/09/02 04:33:57;;;;;;;2.40;0.95;;;12.40;99.90;;;;;;5013709;28;20050;-87
2022/09/02 04:36:23;;;;;;;3.20;1.20;;;12.40;99.90;;;;;;4996778;28;20051;-87
2022/09/02 04:38:50;;;;;;;3.38;1.40;;;12.30;99.90;;;;;;4996470;28;20076;-90
2022/09/02 04:41:21;;;;;;;4.18;1.50;;;12.40;99.90;;;;;;5013422;28;20042;-87
2022/09/02 04:43:48;;;;;;;4.22;1.38;;;12.40;99.90;;;;;;5013742;28;20046;-89
2022/09/02 04:46:15;;;;;;;3.45;1.20;;;12.30;99.90;;;;;;5013961;28;20058;-87
2022/09/02 04:48:41;;;;;;;3.13;1.30;;;12.30;99.90;;;;;;5014394;28;20042;-88
2022/09/02 04:51:11;;;;;;;6.60;1.73;;;12.30;99.90;;;;;;4996249;28;20057;-87
2022/09/02 04:53:36;;;;;;;4.80;1.60;;;12.30;99.90;;;;;;4996533;28;20121;-87
2022/09/02 04:56:05;;;;;;;5.10;1.40;;;12.30;99.90;;;;;;4995743;28;20057;-87
2022/09/02 04:58:30;;;;;;;4.40;1.25;;;12.30;99.90;;;;;;5013847;28;20128;-87
2022/09/02 05:00:56;;;;;;;3.10;1.33;;;12.20;99.90;;;;;;4980727;28;20516;-88
2022/09/02 05:03:23;;;;;;;1.88;1.33;;;12.30;99.90;;;;;;4996444;28;20057;-88
2022/09/02 05:06:02;;;;;;;4.30;1.38;;;12.20;99.90;;;;;;4948615;28;20049;-86
2022/09/02 05:08:27;;;;;;;3.88;1.30;;;12.30;99.90;;;;;;5022497;28;20057;-88
2022/09/02 05:10:53;;;;;;;3.55;1.50;;;12.30;99.90;;;;;;4999387;28;20096;-88
2022/09/02 05:13:19;;;;;;;2.58;1.45;;;12.30;99.90;;;;;;4999480;28;20051;-88
2022/09/02 05:15:45;;;;;;;3.55;1.33;;;12.30;99.90;;;;;;4999637;28;20132;-88
2022/09/02 05:18:11;;;;;;;2.08;1.40;;;12.30;99.90;;;;;;4999150;28;20033;-87
2022/09/02 05:20:38;;;;;;;5.15;1.40;;;12.30;99.90;;;;;;5044568;28;20041;-86
2022/09/02 05:23:05;;;;;;;3.78;1.30;;;12.40;99.90;;;;;;5027997;28;20038;-87
2022/09/02 05:25:30;;;;;;;3.33;1.52;;;12.40;99.90;;;;;;5010110;28;20437;-86
2022/09/02 05:27:56;;;;;;;3.08;1.45;;;12.40;99.90;;;;;;5035464;28;20079;-87
2022/09/02 05:30:22;;;;;;;3.38;1.73;;;12.40;99.90;;;;;;5034790;28;20046;-88
2022/09/02 05:32:48;;;;;;;4.60;1.42;;;12.40;99.90;;;;;;4999405;28;20053;-89
2022/09/02 05:35:15;;;;;;;2.50;1.25;;;12.50;99.90;;;;;;5033406;28;20052;-88
2022/09/02 05:37:40;;;;;;;4.22;1.55;;;12.50;99.90;;;;;;5004774;28;20057;-90
2022/09/02 05:40:07;;;;;;;3.30;1.30;;;12.40;99.90;;;;;;5024063;28;20394;-87
2022/09/02 05:42:33;;;;;;;9.93;1.75;;;12.60;99.90;;;;;;5019052;28;20045;-88
2022/09/02 05:44:59;;;;;;;4.90;1.70;;;12.60;99.90;;;;;;5040873;28;20098;-90
2022/09/02 05:47:25;;;;;;;5.88;1.30;;;12.60;99.90;;;;;;5015113;28;20132;-88
2022/09/02 05:49:50;;;;;;;7.18;1.50;;;12.70;99.90;;;;;;4994954;28;20110;-86
2022/09/02 05:52:17;;;;;;;3.83;1.40;;;12.70;99.90;;;;;;5008977;28;20483;-86
2022/09/02 05:54:43;;;;;;;3.45;1.35;;;12.80;99.90;;;;;;5026777;28;20163;-88
2022/09/02 05:57:12;;;;;;;1.85;1.35;;;12.80;99.90;;;;;;5041849;28;20414;-88
2022/09/02 05:59:41;;;;;;;7.00;1.40;;;12.90;99.90;;;;;;4995886;28;20042;-89
2022/09/02 06:02:09;;;;;;;2.72;1.60;;;13.00;99.90;;;;;;4980815;28;20046;-84
2022/09/02 06:04:44;;;;;;;2.40;1.20;;;13.10;99.90;;;;;;5016965;28;20438;-89
2022/09/02 06:07:10;;;;;;;4.18;1.60;;;13.20;99.90;;;;;;4999413;28;20045;-87
2022/09/02 06:09:35;;;;;;;7.10;1.42;;;13.20;99.90;;;;;;4998967;28;20053;-89
2022/09/02 06:12:02;;;;;;;2.58;1.95;;;13.30;99.90;;;;;;4999604;28;20133;-89
2022/09/02 06:14:29;;;;;;;10.43;1.83;;;13.30;99.90;;;;;;5000123;28;20112;-87
2022/09/02 06:16:57;;;;;;;6.72;2.53;;;13.40;99.90;;;;;;4999656;28;20058;-87
2022/09/02 06:19:25;;;;;;;3.72;1.90;;;13.50;99.90;;;;;;4999361;28;20092;-87
2022/09/02 06:21:52;;;;;;;5.10;1.50;;;13.60;99.90;;;;;;5016532;28;20108;-87
2022/09/02 06:24:19;;;;;;;6.22;1.80;;;13.70;99.90;;;;;;4990037;28;20081;-87
2022/09/02 06:26:44;;;;;;;5.63;1.48;;;13.70;99.90;;;;;;4988147;28;20060;-87
2022/09/02 06:29:11;;;;;;;7.47;1.55;;;13.80;99.90;;;;;;5001232;28;20057;-86
2022/09/02 06:31:44;;;;;;;3.97;1.52;;;13.90;99.90;;;;;;5017009;28;20050;-90
2022/09/02 06:34:13;;;;;;;3.75;1.50;;;14.00;99.90;;;;;;5016429;28;20050;-88
2022/09/02 06:36:40;;;;;;;4.50;1.63;;;14.10;99.90;;;;;;5016617;28;20053;-88
2022/09/02 06:39:09;;;;;;;6.53;1.33;;;14.20;99.90;;;;;;4999593;28;20057;-89
2022/09/02 06:41:36;;;;;;;3.30;1.30;;;14.30;99.90;;;;;;4983534;28;20077;-87
2022/09/02 06:44:05;;;;;;;4.97;1.23;;;14.30;99.90;;;;;;4983060;28;20415;-86
2022/09/02 06:46:34;;;;;;;4.13;1.50;;;14.40;99.90;;;;;;4999592;28;20042;-86
2022/09/02 06:49:00;;;;;;;3.33;1.50;;;14.60;99.90;;;;;;5016635;28;20049;-87
2022/09/02 06:51:33;;;;;;;4.65;1.40;;;14.70;99.90;;;;;;5016758;28;20053;-86
2022/09/02 06:53:59;;;;;;;6.28;1.52;;;14.80;99.90;;;;;;5016659;28;20046;-86
2022/09/02 06:56:26;;;;;;;7.07;1.42;;;14.90;99.90;;;;;;4982298;28;20060;-87
2022/09/02 06:58:52;;;;;;;2.35;1.48;;;15.00;99.90;;;;;;4998592;28;20133;-86
2022/09/02 07:01:23;;;;;;;3.95;1.23;;;15.10;99.90;;;;;;4998252;28;20050;-87
2022/09/02 07:06:40;;;;;;;8.60;1.60;;;15.30;99.90;;;;;;4999466;28;20543;-87
2022/09/02 07:09:07;;;;;;;6.82;1.48;;;15.40;99.90;;;;;;5016395;28;20066;-86
2022/09/02 07:11:36;;;;;;;4.15;1.10;;;15.60;99.90;;;;;;4998307;28;20042;-86
2022/09/02 07:14:03;;;;;;;2.72;1.40;;;15.70;99.90;;;;;;4950558;28;20042;-91
2022/09/02 07:16:32;;;;;;;1.67;1.13;;;15.80;99.90;;;;;;4982864;28;20471;-90
2022/09/02 07:19:00;;;;;;;4.25;1.20;;;15.90;99.90;;;;;;4982924;28;20147;-86
2022/09/02 07:21:27;;;;;;;4.85;1.13;;;16.10;99.90;;;;;;4998189;28;20089;-86
2022/09/02 07:23:54;;;;;;;2.55;1.20;;;16.10;99.90;;;;;;4998293;28;20060;-87
2022/09/02 07:26:21;;;;;;;3.78;1.20;;;16.20;99.90;;;;;;4981478;28;20053;-89
2022/09/02 07:28:46;;;;;;;4.25;1.30;;;16.40;99.90;;;;;;4966586;28;20057;-86
2022/09/02 07:31:15;;;;;;;2.45;1.23;;;16.50;99.90;;;;;;4997993;28;20042;-89
2022/09/02 07:33:41;;;;;;;5.78;1.20;;;16.60;99.90;;;;;;4998549;28;20057;-88
2022/09/02 07:36:09;;;;;;;2.05;1.42;;;16.70;99.90;;;;;;4998251;28;20077;-86
2022/09/02 07:38:35;;;;;;;2.47;1.17;;;16.80;99.90;;;;;;4998072;28;20053;-88
2022/09/02 07:41:02;;;;;;;3.33;1.20;;;16.90;99.90;;;;;;5015726;28;20395;-87
2022/09/02 07:43:30;;;;;;;3.10;1.40;;;17.00;99.90;;;;;;4998040;28;20042;-92
2022/09/02 07:45:57;;;;;;;1.75;1.27;;;17.10;99.90;;;;;;4998237;28;20046;-90
2022/09/02 07:48:23;;;;;;;2.78;1.20;;;17.20;99.90;;;;;;4967272;28;20057;-87
2022/09/02 07:50:50;;;;;;;6.25;1.40;;;17.30;99.90;;;;;;4997892;28;20054;-89
2022/09/02 07:53:17;;;;;;;3.60;1.45;;;17.40;99.90;;;;;;4997284;28;20049;-89
2022/09/02 07:55:43;;;;;;;3.33;1.20;;;17.50;99.90;;;;;;4997445;28;20103;-85
2022/09/02 07:58:10;;;;;;;4.25;1.30;;;17.60;99.90;;;;;;4997804;28;20405;-90
2022/09/02 08:00:37;;;;;;;4.15;1.30;;;17.80;99.90;;;;;;4997672;28;20045;-91
2022/09/02 08:03:04;;;;;;;2.25;1.00;;;17.90;99.90;;;;;;5014663;28;20050;-87
2022/09/02 08:05:31;;;;;;;3.13;0.95;;;18.00;99.90;;;;;;5014886;28;20048;-87
2022/09/02 08:07:59;;;;;;;3.55;1.55;;;18.20;99.90;;;;;;4997152;28;20427;-91
2022/09/02 08:10:28;;;;;;;5.43;1.30;;;18.30;99.90;;;;;;4997652;28;20435;-89
2022/09/02 08:12:56;;;;;;;1.92;1.17;;;18.50;99.90;;;;;;4997183;28;20395;-94
2022/09/02 08:15:22;;;;;;;4.00;1.10;;;18.60;99.90;;;;;;4981224;28;20046;-87
2022/09/02 08:17:48;;;;;;;2.55;1.00;;;18.80;99.90;;;;;;4981150;28;20049;-86
2022/09/02 08:20:16;;;;;;;2.97;1.10;;;18.90;99.90;;;;;;4997110;28;20483;-87
2022/09/02 08:22:42;;;;;;;3.30;1.10;;;19.00;99.90;;;;;;4996691;28;20077;-88
2022/09/02 08:25:09;;;;;;;4.50;0.90;;;19.20;99.90;;;;;;4979965;28;20522;-87
2022/09/02 08:27:36;;;;;;;2.42;1.17;;;19.30;99.90;;;;;;4981424;28;20434;-88
2022/09/02 08:30:09;;;;;;;2.85;1.15;;;19.40;99.50;;;;;;4996989;28;20053;-88
2022/09/02 08:32:35;;;;;;;4.53;1.20;;;19.50;98.80;;;;;;4997423;28;20046;-87
2022/09/02 08:35:03;;;;;;;4.55;1.10;;;19.70;96.50;;;;;;4996682;28;20052;-88
2022/09/02 08:37:32;;;;;;;4.20;1.10;;;19.80;94.90;;;;;;4997119;28;20050;-88
2022/09/02 08:39:58;;;;;;;3.03;0.88;;;20.00;94.80;;;;;;5014326;28;20100;-88
2022/09/02 08:42:31;;;;;;;2.75;1.00;;;20.10;91.30;;;;;;4997106;28;20416;-87
2022/09/02 08:45:12;;;;;;;2.53;0.80;;;20.30;92.00;;;;;;5014752;28;20046;-87
2022/09/02 08:47:42;;;;;;;5.85;1.27;;;20.60;91.50;;;;;;4981008;28;20045;-90
2022/09/02 08:50:17;;;;;;;5.53;1.00;;;20.80;89.70;;;;;;4981746;28;20046;-88
2022/09/02 08:53:13;;;;;;;5.72;1.10;;;21.30;80.60;;;;;;5016036;28;20049;-90
2022/09/02 08:55:46;;;;;;;2.33;0.90;;;22.20;77.20;;;;;;4982137;28;20045;-88
2022/09/02 08:58:18;;;;;;;5.68;0.98;;;23.30;65.90;;;;;;4998727;28;20045;-87
2022/09/02 09:00:50;;;;;;;4.15;1.10;;;24.20;62.00;;;;;;5015723;28;20393;-88
2022/09/02 09:03:40;;;;;;;3.70;1.27;;;24.90;60.50;;;;;;5015584;28;20046;-86
2022/09/02 09:06:19;;;;;;;2.70;1.05;;;25.50;57.10;;;;;;4997385;28;20054;-88
2022/09/02 09:08:58;;;;;;;2.20;1.10;;;25.80;58.40;;;;;;4983217;28;20132;-89
2022/09/02 09:11:44;;;;;;;3.55;0.80;;;26.10;56.60;;;;;;4982021;28;20050;-88
2022/09/02 09:14:28;;;;;;;2.10;0.90;;;26.50;55.10;;;;;;5015636;28;20083;-88
2022/09/02 09:17:26;;;;;;;6.10;1.00;;;26.60;54.20;;;;;;4980200;28;20042;-87
2022/09/02 09:19:55;;;;;;;3.40;1.00;;;27.00;55.20;;;;;;4979835;28;20054;-88
2022/09/02 09:22:30;;;;;;;1.42;0.82;;;27.50;52.70;;;;;;5013444;28;20046;-88
2022/09/02 09:24:57;;;;;;;2.80;0.85;;;27.50;51.90;;;;;;4980024;28;20061;-88
2022/09/02 09:27:23;;;;;;;2.83;0.80;;;27.50;51.40;;;;;;4964132;28;20046;-92
2022/09/02 09:29:49;;;;;;;7.35;0.88;;;27.60;51.80;;;;;;4980327;28;20420;-89
2022/09/02 09:32:33;;;;;;;3.75;0.95;;;27.80;51.50;;;;;;4963965;28;20046;-87
2022/09/02 09:35:14;;;;;;;5.32;1.05;;;28.10;51.20;;;;;;4980464;28;20495;-88
2022/09/02 09:37:45;;;;;;;5.30;1.00;;;28.60;49.30;;;;;;5016264;28;20046;-89
2022/09/02 09:40:24;;;;;;;2.85;0.88;;;28.90;48.50;;;;;;5002716;28;20041;-90
2022/09/02 09:42:56;;;;;;;4.57;0.70;;;29.20;47.70;;;;;;5018181;28;20041;-87
2022/09/02 09:45:35;;;;;;;3.65;0.88;;;29.50;46.90;;;;;;4988264;28;20049;-87
2022/09/02 09:48:13;;;;;;;4.55;0.95;;;29.80;46.40;;;;;;5000787;28;20046;-89
2022/09/02 09:50:39;;;;;;;3.13;1.00;;;30.10;45.50;;;;;;5000069;28;20049;-88
2022/09/02 09:53:35;;;;;;;9.43;1.17;;;30.70;46.00;;;;;;4983983;28;20483;-93
2022/09/02 09:56:04;;;;;;;4.00;1.00;;;31.30;43.70;;;;;;5000001;28;20053;-89
2022/09/02 09:58:38;;;;;;;2.35;0.70;;;31.60;43.30;;;;;;4999895;28;20430;-93
2022/09/02 10:01:29;;;;;;;3.83;0.93;;;31.80;43.00;;;;;;5000424;28;20045;-87
2022/09/02 10:04:11;;;;;;;2.90;0.90;;;31.90;42.30;;;;;;5000135;28;20181;-90
2022/09/02 10:06:40;;;;;;;3.20;0.85;;;32.00;41.40;;;;;;4983829;28;20042;-93
2022/09/02 10:09:30;;;;;;;5.17;0.73;;;32.00;42.10;;;;;;4999180;28;20054;-90
2022/09/02 10:12:11;;;;;;;1.70;0.60;;;32.00;41.50;;;;;;5000172;28;20049;-94
2022/09/02 10:14:44;;;;;;;2.75;0.80;;;31.70;42.00;;;;;;4999996;28;20048;-90
2022/09/02 10:17:17;;;;;;;4.35;0.90;;;31.30;42.30;;;;;;5016862;28;20045;-90
2022/09/02 10:20:17;;;;;;;2.35;0.70;;;31.00;42.70;;;;;;5000049;28;20458;-89
2022/09/02 10:22:46;;;;;;;2.83;0.90;;;30.70;42.50;;;;;;4999935;28;20046;-89
2022/09/02 10:25:47;;;;;;;4.90;0.98;;;30.50;43.80;;;;;;4983658;28;20054;-93
2022/09/02 10:28:19;;;;;;;2.50;0.73;;;30.40;42.70;;;;;;5000840;28;20136;-89
2022/09/02 10:30:48;;;;;;;1.50;0.88;;;30.40;42.80;;;;;;4983595;28;20084;-89
2022/09/02 10:33:34;;;;;;;2.67;0.80;;;30.50;43.40;;;;;;4999280;28;20050;-88
2022/09/02 10:36:27;;;;;;;5.18;1.05;;;31.00;42.40;;;;;;4984705;28;20057;-89
2022/09/02 10:38:58;;;;;;;4.68;0.93;;;31.80;40.40;;;;;;4992453;28;20046;-86
2022/09/02 10:41:35;;;;;;;3.80;0.80;;;32.40;40.00;;;;;;4971215;28;20073;-92
2022/09/02 10:44:18;;;;;;;4.43;0.70;;;32.90;39.10;;;;;;5000673;28;20099;-86
2022/09/02 10:47:26;;;;;;;3.42;0.80;;;33.60;39.70;;;;;;5001542;28;20061;-86
2022/09/02 10:50:03;;;;;;;1.83;0.80;;;34.20;38.70;;;;;;5016146;28;20111;-86
2022/09/02 10:52:38;;;;;;;1.73;0.80;;;34.30;38.10;;;;;;4998988;28;20049;-87
2022/09/02 10:55:16;;;;;;;6.32;0.80;;;34.50;37.50;;;;;;4998823;28;20403;-87
2022/09/02 10:57:49;;;;;;;2.47;0.70;;;34.50;36.90;;;;;;4999409;28;20072;-87
2022/09/02 11:00:19;;;;;;;2.70;0.90;;;34.50;36.70;;;;;;5016051;28;20076;-87
2022/09/02 11:03:07;;;;;;;2.67;0.88;;;34.30;36.50;;;;;;4998421;28;20050;-89
2022/09/02 11:05:51;;;;;;;3.25;0.90;;;34.00;36.70;;;;;;4983294;28;20129;-87
2022/09/02 11:08:24;;;;;;;3.17;0.80;;;34.00;38.30;;;;;;4998616;28;20101;-93
2022/09/02 11:11:02;;;;;;;2.15;0.70;;;34.20;37.30;;;;;;5015859;28;20057;-86
2022/09/02 11:13:43;;;;;;;2.58;0.80;;;34.30;36.70;;;;;;4998231;28;20080;-89
2022/09/02 11:16:38;;;;;;;;;;;34.00;36.80;;;;;;4999205;28;20052;-90
2022/09/02 11:19:48;;;;;;;2.17;0.90;;;33.80;37.20;;;;;;4982162;28;19976;-92
2022/09/02 11:22:48;;;;;;;3.63;1.00;;;33.60;37.70;;;;;;4961991;28;20039;-90
2022/09/02 11:25:43;;;;;;;2.78;0.90;;;33.30;37.40;;;;;;4998535;28;20380;-87
2022/09/02 11:28:38;;;;;;;2.90;1.00;;;32.90;38.10;;;;;;4983983;28;20057;-87
2022/09/02 11:31:15;;;;;;;4.63;1.10;;;32.50;38.50;;;;;;4981853;28;20444;-86
2022/09/02 11:33:53;;;;;;;5.13;1.05;;;32.30;38.40;;;;;;5015961;28;20054;-87
2022/09/02 11:36:19;;;;;;;3.30;0.90;;;32.10;38.40;;;;;;4998291;28;20046;-88
2022/09/02 11:38:53;;;;;;;4.88;1.05;;;32.00;38.70;;;;;;5015559;28;20506;-87
2022/09/02 11:41:34;;;;;;;1.88;0.90;;;32.00;38.00;;;;;;5015765;28;20053;-86
2022/09/02 11:44:18;;;;;;;1.08;0.80;;;32.10;38.90;;;;;;4998070;28;20088;-87
2022/09/02 11:47:06;;;;;;;2.45;0.98;;;32.30;38.90;;;;;;4998199;28;20053;-87
2022/09/02 11:49:46;;;;;;;3.83;1.05;;;32.30;38.60;;;;;;4982094;28;20049;-85
2022/09/02 11:52:37;;;;;;;3.53;1.00;;;32.30;38.10;;;;;;4998073;28;20057;-87
2022/09/02 11:55:15;;;;;;;3.03;0.77;;;32.40;38.80;;;;;;5015000;28;20504;-92
2022/09/02 11:57:41;;;;;;;2.10;0.90;;;32.70;38.80;;;;;;4998885;28;20133;-86
2022/09/02 12:00:25;;;;;;;2.92;0.90;;;33.00;38.80;;;;;;4996786;28;20092;-93
2022/09/02 12:03:03;;;;;;;2.15;0.80;;;33.10;38.30;;;;;;4981426;28;20034;-87
2022/09/02 12:05:29;;;;;;;2.78;0.82;;;33.20;38.80;;;;;;5015271;28;20392;-89
2022/09/02 12:08:03;;;;;;;2.47;0.90;;;33.30;38.20;;;;;;5014599;28;20054;-87
2022/09/02 12:10:47;;;;;;;3.15;1.05;;;33.40;37.90;;;;;;5015147;28;20061;-90
2022/09/02 12:13:50;;;;;;;4.32;1.00;;;33.30;38.00;;;;;;4997422;28;20046;-86
2022/09/02 12:16:34;;;;;;;2.35;0.80;;;33.10;37.80;;;;;;4981370;28;20145;-87
2022/09/02 12:19:06;;;;;;;3.17;0.77;;;32.90;39.00;;;;;;4997187;28;20132;-87
2022/09/02 12:21:34;;;;;;;3.22;0.90;;;32.70;38.30;;;;;;4997045;28;20046;-89
2022/09/02 12:23:59;;;;;;;2.05;0.80;;;32.50;38.80;;;;;;4999379;28;20474;-86
2022/09/02 12:26:30;;;;;;;1.60;0.75;;;32.40;38.50;;;;;;4996907;28;20077;-86
2022/09/02 12:29:13;;;;;;;;;;;32.40;38.80;;;;;;4981308;28;20054;-86
2022/09/02 12:31:45;;;;;;;2.50;0.90;;;32.40;37.50;;;;;;4997447;28;20349;-91
2022/09/02 12:34:45;;;;;;;7.25;1.02;;;32.00;38.50;;;;;;4996871;28;20057;-86
2022/09/02 12:37:50;;;;;;;2.22;0.70;;;31.30;38.90;;;;;;4990205;28;20151;-85
2022/09/02 12:40:23;;;;;;;4.10;1.00;;;30.70;39.00;;;;;;4997305;28;20553;-89
2022/09/02 12:42:50;;;;;;;0.98;0.60;;;30.20;40.20;;;;;;4980697;28;20124;-88
2022/09/02 12:45:25;;;;;;;4.53;0.93;;;29.90;39.80;;;;;;4996830;28;20180;-89
2022/09/02 12:48:08;;;;;;;5.32;1.40;;;29.60;40.40;;;;;;5015301;28;20129;-87
2022/09/02 12:50:42;;;;;;;1.90;1.00;;;29.30;40.60;;;;;;4981742;28;20072;-86
2022/09/02 12:53:31;;;;;;;1.90;0.95;;;29.00;41.00;;;;;;4980967;28;20133;-85
2022/09/02 12:56:05;;;;;;;1.50;0.77;;;28.70;41.90;;;;;;5013379;28;20053;-86
2022/09/02 12:58:57;;;;;;;2.38;1.00;;;28.40;42.20;;;;;;4996833;28;20047;-88
2022/09/02 13:02:01;;;;;;;2.10;0.95;;;28.20;41.90;;;;;;4979335;28;20112;-86
2022/09/02 13:05:05;;;;;;;4.15;1.10;;;28.10;43.50;;;;;;4976114;28;20066;-85
2022/09/02 13:08:06;;;;;;;1.65;0.77;;;27.80;42.70;;;;;;4963241;28;20050;-88
2022/09/02 13:11:09;;;;;;;1.55;0.90;;;27.50;43.30;;;;;;4995597;28;20058;-89
2022/09/02 13:13:53;;;;;;;3.65;0.90;;;27.30;43.60;;;;;;4996370;28;20046;-91